Time;durP1;ratioP1;P1;durP2;ratioP2;P2;SDS_P1;SDS_P2;PMS_P1;PMS_P2;Temp;Humidity;BMP_temperature;BMP_pressure;BME280_temperature;BME280_humidity;BME280_pressure;Samples;Min_cycle;Max_cycle;Signal;HPM_P1;HPM_P2
2023/08/09 00:00:28;;;;;;;;;;;15.80;90.40;;;;;;5020412;28;19914;-93
2023/08/09 00:03:02;;;;;;;;;;;15.60;89.90;;;;;;5001033;28;19996;-91
2023/08/09 00:05:39;;;;;;;;;;;15.60;89.70;;;;;;5007777;28;19954;-91
2023/08/09 00:08:07;;;;;;;;;;;15.40;88.90;;;;;;5020229;28;19914;-91
2023/08/09 00:10:46;;;;;;;;;;;15.20;89.20;;;;;;5017135;28;19920;-91
2023/08/09 00:13:20;;;;;;;;;;;15.10;89.70;;;;;;5017394;28;19969;-91
2023/08/09 00:19:54;;;;;;;;;;;;;;;;;;;;;
2023/08/09 00:22:58;;;;;;;;;;;14.80;90.40;;;;;;5001650;28;19914;-91
2023/08/09 00:25:56;;;;;;;;;;;;;;;;;;;;;
2023/08/09 00:28:48;;;;;;;;;;;14.80;91.20;;;;;;4948140;29;19925;-90
2023/08/09 00:34:28;;;;;;;;;;;14.80;91.10;;;;;;4996110;28;19925;-91
2023/08/09 00:37:13;;;;;;;;;;;;;;;;;;;;;
2023/08/09 00:39:49;;;;;;;;;;;14.80;91.70;;;;;;5016496;28;19922;-91
2023/08/09 00:42:23;;;;;;;;;;;14.80;90.90;;;;;;5014587;28;19957;-91
2023/08/09 00:44:57;;;;;;;;;;;14.80;91.30;;;;;;5015295;28;19909;-91
2023/08/09 01:15:59;;;;;;;;;;;14.80;91.50;;;;;;4863337;29;19957;-92
2023/08/09 01:19:01;;;;;;;;;;;15.00;91.70;;;;;;4865992;29;20327;-92
2023/08/09 01:41:27;;;;;;;;;;;15.10;91.40;;;;;;4797562;29;19925;-92
2023/08/09 01:53:39;;;;;;;;;;;15.00;90.70;;;;;;4852725;29;19912;-92
2023/08/09 01:59:09;;;;;;;;;;;15.00;90.70;;;;;;4919596;23;20414;-85
2023/08/09 02:01:34;;;;;;;;;;;15.00;90.70;;;;;;4987679;28;19921;-85
2023/08/09 02:04:00;;;;;;;;;;;15.00;90.50;;;;;;4989992;28;19914;-85
2023/08/09 02:06:26;;;;;;;;;;;15.00;90.50;;;;;;4985111;28;19929;-85
2023/08/09 02:08:51;;;;;;;;;;;15.00;90.40;;;;;;4992664;28;19917;-84
2023/08/09 02:11:17;;;;;;;;;;;15.00;90.40;;;;;;5004400;28;19914;-84
2023/08/09 02:13:43;;;;;;;;;;;15.00;90.50;;;;;;4999863;28;19914;-85
2023/08/09 02:16:09;;;;;;;;;;;15.00;90.40;;;;;;4998090;28;19914;-85
2023/08/09 02:18:34;;;;;;;;;;;15.00;90.50;;;;;;5003608;28;19914;-85
2023/08/09 02:21:02;;;;;;;;;;;15.00;90.50;;;;;;4991029;28;19999;-85
2023/08/09 02:23:28;;;;;;;;;;;15.00;90.70;;;;;;4994382;28;20281;-85
2023/08/09 02:25:54;;;;;;;;;;;15.00;90.70;;;;;;4997029;28;19917;-85
2023/08/09 02:28:19;;;;;;;;;;;15.00;90.80;;;;;;4996716;28;19914;-85
2023/08/09 02:30:45;;;;;;;;;;;15.00;90.80;;;;;;4996147;28;19921;-85
2023/08/09 02:33:11;;;;;;;;;;;15.00;91.00;;;;;;4985992;28;19926;-84
2023/08/09 02:35:52;;;;;;;;;;;15.00;91.00;;;;;;4987110;28;20374;-85
2023/08/09 02:38:18;;;;;;;;;;;15.00;91.20;;;;;;4989226;28;19922;-84
2023/08/09 02:40:43;;;;;;;;;;;15.00;91.30;;;;;;4986205;28;19955;-85
2023/08/09 02:43:09;;;;;;;;;;;15.00;91.30;;;;;;4990947;28;19914;-85
2023/08/09 02:45:34;;;;;;;;;;;15.00;91.60;;;;;;4985575;28;19981;-85
2023/08/09 02:47:59;;;;;;;;;;;15.00;91.30;;;;;;4992791;28;19914;-86
2023/08/09 02:50:25;;;;;;;;;;;15.00;91.20;;;;;;4982293;28;19915;-84
2023/08/09 02:52:50;;;;;;;;;;;15.00;91.50;;;;;;4986214;28;20005;-84
2023/08/09 02:55:17;;;;;;;;;;;15.00;91.70;;;;;;4983455;28;19973;-85
2023/08/09 02:57:42;;;;;;;;;;;15.00;91.60;;;;;;4978655;28;19911;-85
2023/08/09 03:00:08;;;;;;;;;;;15.00;91.90;;;;;;4991599;28;19924;-85
2023/08/09 03:02:33;;;;;;;;;;;15.00;92.00;;;;;;5013008;28;19913;-85
2023/08/09 03:05:00;;;;;;;;;;;15.00;92.50;;;;;;5002603;28;19911;-85
2023/08/09 03:07:25;;;;;;;;;;;15.00;92.40;;;;;;5005137;28;19920;-85
2023/08/09 03:09:51;;;;;;;;;;;14.90;91.80;;;;;;4995947;28;19910;-84
2023/08/09 03:12:16;;;;;;;;;;;14.80;92.10;;;;;;4997258;28;19914;-85
2023/08/09 03:14:41;;;;;;;;;;;14.70;92.10;;;;;;5010596;28;19913;-85
2023/08/09 03:17:07;;;;;;;;;;;14.70;92.20;;;;;;5002813;28;19910;-85
2023/08/09 03:19:32;;;;;;;;;;;14.60;92.30;;;;;;4993253;28;19913;-85
2023/08/09 03:21:58;;;;;;;;;;;14.60;92.40;;;;;;4993686;28;19921;-85
2023/08/09 03:24:24;;;;;;;;;;;14.60;92.40;;;;;;4993371;28;19914;-85
2023/08/09 03:26:49;;;;;;;;;;;14.50;92.40;;;;;;4992406;28;20375;-84
2023/08/09 03:29:15;;;;;;;;;;;14.60;92.50;;;;;;5009891;28;19905;-84
2023/08/09 03:31:41;;;;;;;;;;;14.70;92.00;;;;;;5008423;28;19902;-85
2023/08/09 03:34:07;;;;;;;;;;;14.60;91.80;;;;;;5007134;28;19946;-84
2023/08/09 03:36:32;;;;;;;;;;;14.60;91.40;;;;;;4999097;28;19984;-84
2023/08/09 03:38:58;;;;;;;;;;;14.70;91.30;;;;;;4999275;28;19917;-85
2023/08/09 03:41:25;;;;;;;;;;;14.60;91.10;;;;;;4988073;28;19989;-85
2023/08/09 03:43:50;;;;;;;;;;;14.70;91.20;;;;;;4987360;28;20364;-85
2023/08/09 03:46:16;;;;;;;;;;;14.70;91.10;;;;;;4997392;28;19918;-84
2023/08/09 03:48:41;;;;;;;;;;;14.70;91.40;;;;;;4997587;28;20295;-85
2023/08/09 03:51:06;;;;;;;;;;;14.70;90.80;;;;;;4987544;28;19921;-85
2023/08/09 03:53:32;;;;;;;;;;;14.70;90.50;;;;;;4984276;28;19918;-85
2023/08/09 03:55:57;;;;;;;;;;;14.80;90.00;;;;;;4988489;28;19919;-85
2023/08/09 03:58:23;;;;;;;;;;;14.80;90.00;;;;;;4988576;28;20453;-84
2023/08/09 04:00:48;;;;;;;;;;;14.70;90.40;;;;;;4993768;28;20004;-85
2023/08/09 04:03:14;;;;;;;;;;;14.80;90.70;;;;;;4999007;28;19917;-84
2023/08/09 04:05:39;;;;;;;;;;;14.70;90.00;;;;;;4998014;28;19910;-84
2023/08/09 04:08:06;;;;;;;;;;;14.70;89.90;;;;;;4995874;28;19999;-84
2023/08/09 04:10:32;;;;;;;;;;;14.80;89.30;;;;;;4986090;28;19969;-84
2023/08/09 04:12:58;;;;;;;;;;;14.70;89.50;;;;;;4978073;28;19915;-84
2023/08/09 04:15:23;;;;;;;;;;;14.60;89.50;;;;;;4996251;28;19929;-84
2023/08/09 04:17:49;;;;;;;;;;;14.60;89.90;;;;;;5006305;28;19918;-84
2023/08/09 04:20:16;;;;;;;;;;;14.70;89.90;;;;;;4993812;28;20288;-84
2023/08/09 04:22:41;;;;;;;;;;;14.70;89.70;;;;;;4979247;28;19917;-84
2023/08/09 04:25:10;;;;;;;;;;;14.70;90.10;;;;;;4994648;28;19914;-84
2023/08/09 04:27:36;;;;;;;;;;;14.70;90.50;;;;;;4995055;28;19920;-84
2023/08/09 04:30:03;;;;;;;;;;;14.80;90.00;;;;;;4995450;28;19914;-85
2023/08/09 04:32:29;;;;;;;;;;;14.80;89.10;;;;;;4999206;28;19921;-85
2023/08/09 04:34:54;;;;;;;;;;;14.70;89.20;;;;;;5002118;28;19914;-85
2023/08/09 04:37:20;;;;;;;;;;;14.60;89.40;;;;;;4996730;28;19973;-85
2023/08/09 04:39:45;;;;;;;;;;;14.60;89.30;;;;;;5002609;28;19910;-86
2023/08/09 04:42:11;;;;;;;;;;;14.60;89.70;;;;;;5000592;28;19960;-85
2023/08/09 04:44:36;;;;;;;;;;;14.60;89.60;;;;;;5003954;28;20410;-86
2023/08/09 04:47:03;;;;;;;;;;;14.60;89.60;;;;;;4996988;28;19913;-87
2023/08/09 04:49:28;;;;;;;;;;;14.60;89.40;;;;;;4998145;28;19914;-87
2023/08/09 04:51:54;;;;;;;;;;;14.60;89.80;;;;;;4995139;28;19914;-87
2023/08/09 04:54:20;;;;;;;;;;;14.60;90.00;;;;;;4995848;28;19917;-87
2023/08/09 04:56:46;;;;;;;;;;;14.70;90.30;;;;;;4994335;28;19922;-86
2023/08/09 04:59:11;;;;;;;;;;;14.70;90.40;;;;;;4997491;28;20272;-86
2023/08/09 05:01:37;;;;;;;;;;;14.90;90.10;;;;;;4994659;28;19922;-85
2023/08/09 05:04:03;;;;;;;;;;;14.90;89.80;;;;;;4998036;28;20300;-88
2023/08/09 05:06:28;;;;;;;;;;;14.90;89.80;;;;;;4992661;28;20283;-85
2023/08/09 05:08:54;;;;;;;;;;;14.90;90.00;;;;;;4995038;28;19984;-87
2023/08/09 05:11:19;;;;;;;;;;;15.00;90.20;;;;;;4999172;28;19914;-86
2023/08/09 05:13:45;;;;;;;;;;;15.00;89.70;;;;;;5002647;28;20349;-85
2023/08/09 05:16:10;;;;;;;;;;;15.00;89.20;;;;;;4999325;28;20375;-86
2023/08/09 05:18:36;;;;;;;;;;;15.00;89.00;;;;;;5002920;28;19917;-86
2023/08/09 05:21:01;;;;;;;;;;;15.00;89.30;;;;;;5009577;28;19902;-87
2023/08/09 05:23:27;;;;;;;;;;;14.90;89.00;;;;;;5011426;28;19918;-84
2023/08/09 05:25:52;;;;;;;;;;;15.00;88.90;;;;;;5002144;28;19910;-83
2023/08/09 05:28:18;;;;;;;;;;;15.00;88.90;;;;;;4997397;28;19937;-85
2023/08/09 05:30:44;;;;;;;;;;;14.90;88.90;;;;;;4999437;28;19914;-86
2023/08/09 05:33:09;;;;;;;;;;;14.80;89.00;;;;;;4988477;28;19928;-86
2023/08/09 05:35:35;;;;;;;;;;;14.90;88.70;;;;;;4997855;28;19914;-86
2023/08/09 05:38:00;;;;;;;;;;;14.90;88.70;;;;;;4992836;28;19920;-85
2023/08/09 05:40:26;;;;;;;;;;;14.90;89.10;;;;;;4998350;28;19933;-85
2023/08/09 05:42:51;;;;;;;;;;;14.90;89.10;;;;;;4993423;28;19917;-86
2023/08/09 05:45:17;;;;;;;;;;;15.00;88.90;;;;;;5004209;28;20469;-85
2023/08/09 05:47:43;;;;;;;;;;;15.00;88.80;;;;;;5003649;28;19910;-86
2023/08/09 05:50:08;;;;;;;;;;;15.00;88.30;;;;;;5001870;28;19910;-86
2023/08/09 05:52:34;;;;;;;;;;;15.00;88.20;;;;;;5002140;28;20438;-86
2023/08/09 05:54:59;;;;;;;;;;;14.90;88.70;;;;;;4999314;28;20008;-85
2023/08/09 05:57:27;;;;;;;;;;;15.00;88.40;;;;;;5005354;28;22561;-85
2023/08/09 05:59:52;;;;;;;;;;;15.00;88.40;;;;;;5004910;28;19918;-84
2023/08/09 06:02:18;;;;;;;;;;;15.00;88.00;;;;;;5004858;28;19910;-84
2023/08/09 06:04:43;;;;;;;;;;;15.10;87.70;;;;;;5004123;28;19910;-84
2023/08/09 06:07:09;;;;;;;;;;;15.10;87.40;;;;;;5004655;28;20476;-83
2023/08/09 06:09:34;;;;;;;;;;;15.10;87.00;;;;;;5002835;28;20353;-84
2023/08/09 06:12:02;;;;;;;;;;;15.10;85.60;;;;;;5001541;28;19980;-83
2023/08/09 06:14:27;;;;;;;;;;;15.00;85.90;;;;;;4995294;28;19968;-83
2023/08/09 06:16:52;;;;;;;;;;;15.10;86.60;;;;;;5007301;28;19910;-83
2023/08/09 06:19:18;;;;;;;;;;;15.20;86.60;;;;;;5005813;28;19977;-83
2023/08/09 06:21:43;;;;;;;;;;;15.30;86.50;;;;;;5012749;28;19914;-84
2023/08/09 06:24:09;;;;;;;;;;;15.40;86.90;;;;;;4996829;28;19909;-84
2023/08/09 06:26:34;;;;;;;;;;;15.30;86.20;;;;;;4993106;28;19957;-84
2023/08/09 06:29:00;;;;;;;;;;;15.40;86.70;;;;;;4990529;28;19911;-83
2023/08/09 06:31:26;;;;;;;;;;;15.40;87.10;;;;;;5017751;28;19913;-84
2023/08/09 06:33:52;;;;;;;;;;;15.60;86.10;;;;;;5017228;28;19906;-85
2023/08/09 06:36:17;;;;;;;;;;;15.60;86.00;;;;;;5003183;28;19914;-84
2023/08/09 06:38:43;;;;;;;;;;;15.50;85.10;;;;;;5004111;28;20064;-85
2023/08/09 06:41:08;;;;;;;;;;;15.50;85.50;;;;;;5004095;28;19917;-84
2023/08/09 06:43:35;;;;;;;;;;;15.50;85.90;;;;;;5001857;28;19914;-84
2023/08/09 06:46:00;;;;;;;;;;;15.60;86.80;;;;;;5002687;28;19988;-85
2023/08/09 06:48:29;;;;;;;;;;;15.60;86.30;;;;;;5000745;28;20369;-84
2023/08/09 06:50:55;;;;;;;;;;;15.80;86.70;;;;;;5000865;28;19917;-85
2023/08/09 06:53:21;;;;;;;;;;;15.90;86.20;;;;;;5000555;28;19937;-83
2023/08/09 06:55:46;;;;;;;;;;;15.90;85.30;;;;;;5000194;28;19918;-85
2023/08/09 06:58:12;;;;;;;;;;;15.80;85.80;;;;;;5005370;28;19910;-84
2023/08/09 07:00:37;;;;;;;;;;;15.80;85.00;;;;;;4999884;28;20323;-84
2023/08/09 07:03:03;;;;;;;;;;;15.80;85.00;;;;;;5006181;28;19961;-85
2023/08/09 07:05:28;;;;;;;;;;;15.90;85.50;;;;;;5010575;28;19910;-85
2023/08/09 07:07:57;;;;;;;;;;;16.10;85.50;;;;;;5006139;28;20284;-83
2023/08/09 07:10:24;;;;;;;;;;;16.10;85.80;;;;;;5007020;28;20341;-84
2023/08/09 07:12:50;;;;;;;;;;;16.10;85.30;;;;;;4998260;28;19910;-85
2023/08/09 07:15:16;;;;;;;;;;;16.30;85.00;;;;;;4997509;28;19933;-84
2023/08/09 07:17:42;;;;;;;;;;;16.10;85.10;;;;;;5007904;28;20423;-85
2023/08/09 07:20:11;;;;;;;;;;;16.20;84.50;;;;;;5005037;28;19976;-84
2023/08/09 07:22:37;;;;;;;;;;;16.10;84.10;;;;;;5001333;28;20299;-83
2023/08/09 07:25:03;;;;;;;;;;;16.00;84.70;;;;;;5002194;28;19913;-83
2023/08/09 07:27:28;;;;;;;;;;;16.10;85.10;;;;;;4996845;28;19969;-85
2023/08/09 07:29:54;;;;;;;;;;;15.90;84.00;;;;;;4995467;28;19920;-84
2023/08/09 07:32:19;;;;;;;;;;;15.80;84.00;;;;;;4999669;28;19915;-84
2023/08/09 07:34:45;;;;;;;;;;;15.70;84.00;;;;;;4992502;28;19953;-83
2023/08/09 07:37:10;;;;;;;;;;;15.80;84.40;;;;;;4984841;28;20372;-84
2023/08/09 07:39:36;;;;;;;;;;;15.90;84.00;;;;;;5001857;28;19926;-84
2023/08/09 07:42:01;;;;;;;;;;;15.90;82.50;;;;;;5015882;28;19914;-84
2023/08/09 07:44:27;;;;;;;;;;;16.10;83.90;;;;;;4986704;28;19910;-84
2023/08/09 07:46:52;;;;;;;;;;;16.00;83.10;;;;;;4991768;28;19910;-83
2023/08/09 07:49:17;;;;;;;;;;;16.10;81.90;;;;;;4985981;28;19911;-84
2023/08/09 07:51:43;;;;;;;;;;;16.10;80.80;;;;;;4980052;28;19916;-84
2023/08/09 07:54:08;;;;;;;;;;;16.30;80.40;;;;;;4984345;28;20280;-84
2023/08/09 07:56:34;;;;;;;;;;;16.10;81.20;;;;;;4998045;28;19910;-84
2023/08/09 07:59:00;;;;;;;;;;;16.00;82.20;;;;;;5003571;23;19941;-89
2023/08/09 08:01:25;;;;;;;;;;;16.00;83.00;;;;;;5004913;28;19918;-87
2023/08/09 08:03:51;;;;;;;;;;;15.80;82.30;;;;;;5003826;28;19909;-87
2023/08/09 08:06:17;;;;;;;;;;;15.80;82.40;;;;;;4999376;28;20432;-90
2023/08/09 08:08:45;;;;;;;;;;;15.70;81.80;;;;;;5014550;28;19909;-89
2023/08/09 08:11:11;;;;;;;;;;;15.70;83.40;;;;;;4995020;28;19920;-89
2023/08/09 08:13:42;;;;;;;;;;;15.80;84.90;;;;;;4995089;28;19926;-88
2023/08/09 08:16:07;;;;;;;;;;;16.00;85.70;;;;;;4993317;28;19918;-88
2023/08/09 08:18:33;;;;;;;;;;;16.20;86.20;;;;;;4995873;28;19910;-89
2023/08/09 08:21:00;;;;;;;;;;;16.40;83.20;;;;;;4994200;28;20286;-88
2023/08/09 08:23:25;;;;;;;;;;;16.50;81.00;;;;;;4991897;28;19911;-86
2023/08/09 08:25:51;;;;;;;;;;;16.60;80.00;;;;;;4985349;28;19920;-84
2023/08/09 08:28:16;;;;;;;;;;;16.60;80.50;;;;;;4989136;28;19910;-85
2023/08/09 08:30:42;;;;;;;;;;;16.50;80.80;;;;;;4994349;28;19913;-86
2023/08/09 08:33:08;;;;;;;;;;;16.50;80.80;;;;;;4993220;28;19972;-87
2023/08/09 08:35:36;;;;;;;;;;;16.50;79.60;;;;;;4992691;28;19921;-86
2023/08/09 08:38:02;;;;;;;;;;;16.50;78.90;;;;;;4993682;28;19932;-85
2023/08/09 08:40:31;;;;;;;;;;;16.40;80.00;;;;;;4977977;28;19920;-85
2023/08/09 08:42:57;;;;;;;;;;;16.50;78.40;;;;;;4981618;28;19925;-85
2023/08/09 08:45:22;;;;;;;;;;;16.40;78.90;;;;;;4987948;28;19914;-85
2023/08/09 08:47:48;;;;;;;;;;;16.40;79.00;;;;;;4991457;28;19917;-86
2023/08/09 08:50:14;;;;;;;;;;;16.50;80.10;;;;;;4984891;28;19914;-86
2023/08/09 08:52:42;;;;;;;;;;;16.60;82.10;;;;;;4993346;28;19909;-88
2023/08/09 08:55:11;;;;;;;;;;;16.80;80.00;;;;;;4991630;28;19917;-86
2023/08/09 08:57:37;;;;;;;;;;;16.90;80.90;;;;;;4986226;28;20407;-88
2023/08/09 09:00:08;;;;;;;;;;;17.10;80.70;;;;;;4983604;28;19960;-88
2023/08/09 09:02:36;;;;;;;;;;;17.20;78.10;;;;;;4992841;28;19914;-88
2023/08/09 09:05:02;;;;;;;;;;;17.50;74.70;;;;;;4979480;28;19914;-88
2023/08/09 09:07:36;;;;;;;;;;;17.60;75.20;;;;;;4980925;28;19918;-88
2023/08/09 09:10:05;;;;;;;;;;;17.50;72.10;;;;;;4989415;28;19913;-89
2023/08/09 09:12:37;;;;;;;;;;;17.30;73.20;;;;;;4987824;28;20391;-90
2023/08/09 09:15:04;;;;;;;;;;;17.30;73.40;;;;;;4982319;28;20000;-87
2023/08/09 09:17:30;;;;;;;;;;;17.20;73.60;;;;;;4981430;28;20435;-88
2023/08/09 09:19:56;;;;;;;;;;;17.20;75.00;;;;;;4981710;28;19937;-88
2023/08/09 09:22:26;;;;;;;;;;;17.30;77.20;;;;;;4989196;28;20384;-87
2023/08/09 09:24:51;;;;;;;;;;;17.30;76.20;;;;;;4978004;28;19910;-88
2023/08/09 09:27:17;;;;;;;;;;;17.40;76.50;;;;;;4974778;28;19916;-87
2023/08/09 09:29:42;;;;;;;;;;;17.50;74.60;;;;;;4995473;28;19913;-87
2023/08/09 09:32:08;;;;;;;;;;;17.60;73.90;;;;;;4993741;28;19957;-87
2023/08/09 09:34:35;;;;;;;;;;;17.60;73.60;;;;;;4994665;28;19960;-87
2023/08/09 09:37:00;;;;;;;;;;;17.60;73.30;;;;;;4994212;28;19952;-90
2023/08/09 09:39:27;;;;;;;;;;;17.80;73.40;;;;;;4993433;28;19960;-90
2023/08/09 09:41:55;;;;;;;;;;;18.10;74.00;;;;;;4981330;28;19918;-88
2023/08/09 09:44:20;;;;;;;;;;;18.00;74.70;;;;;;4985121;28;19910;-89
2023/08/09 09:46:52;;;;;;;;;;;18.00;71.80;;;;;;4979784;28;19917;-90
2023/08/09 09:49:18;;;;;;;;;;;17.90;72.60;;;;;;4988687;28;20016;-89
2023/08/09 09:51:45;;;;;;;;;;;18.00;72.30;;;;;;4990057;28;20024;-90
2023/08/09 09:54:11;;;;;;;;;;;17.80;73.70;;;;;;4983234;28;19989;-90
2023/08/09 09:56:37;;;;;;;;;;;17.90;72.70;;;;;;4989229;28;19917;-90
2023/08/09 09:59:08;;;;;;;;;;;18.00;71.30;;;;;;4981581;28;19918;-89
2023/08/09 10:01:37;;;;;;;;;;;18.00;70.50;;;;;;4987010;28;19924;-90
2023/08/09 10:04:08;;;;;;;;;;;18.10;71.40;;;;;;4979971;28;19914;-88
2023/08/09 10:06:39;;;;;;;;;;;18.30;69.30;;;;;;4981339;28;19914;-89
2023/08/09 10:09:07;;;;;;;;;;;18.40;67.50;;;;;;4982288;28;20044;-89
2023/08/09 10:11:34;;;;;;;;;;;18.40;67.40;;;;;;4993700;28;19902;-89
2023/08/09 10:14:03;;;;;;;;;;;18.50;66.50;;;;;;4994357;28;20019;-89
2023/08/09 10:16:30;;;;;;;;;;;18.60;68.30;;;;;;5004337;28;19918;-89
2023/08/09 10:19:15;;;;;;;;;;;18.50;65.70;;;;;;4990004;28;19920;-88
2023/08/09 10:21:48;;;;;;;;;;;18.60;67.00;;;;;;4982392;28;20009;-89
2023/08/09 10:24:13;;;;;;;;;;;18.90;67.20;;;;;;4988207;28;20442;-88
2023/08/09 10:26:40;;;;;;;;;;;18.90;63.40;;;;;;4985624;28;19922;-89
2023/08/09 10:29:11;;;;;;;;;;;19.00;61.20;;;;;;4984979;28;19984;-88
2023/08/09 10:31:44;;;;;;;;;;;19.00;63.50;;;;;;4993033;28;19961;-88
2023/08/09 10:34:13;;;;;;;;;;;19.10;65.60;;;;;;4985490;28;19921;-89
2023/08/09 10:36:49;;;;;;;;;;;19.10;64.30;;;;;;4989604;28;19937;-89
2023/08/09 10:39:20;;;;;;;;;;;19.20;63.00;;;;;;4982280;28;19918;-89
2023/08/09 10:41:55;;;;;;;;;;;19.20;64.10;;;;;;4985279;28;19913;-89
2023/08/09 10:44:35;;;;;;;;;;;19.20;62.80;;;;;;4982081;28;19949;-89
2023/08/09 10:47:03;;;;;;;;;;;19.20;63.40;;;;;;4977747;28;19914;-89
2023/08/09 10:49:47;;;;;;;;;;;19.30;62.90;;;;;;4987632;28;19917;-88
2023/08/09 10:52:13;;;;;;;;;;;19.50;62.60;;;;;;4982214;28;19929;-89
2023/08/09 10:54:39;;;;;;;;;;;19.80;60.50;;;;;;4992986;28;20288;-90
2023/08/09 10:57:09;;;;;;;;;;;20.00;59.40;;;;;;4991681;28;19910;-89
2023/08/09 10:59:35;;;;;;;;;;;20.10;55.90;;;;;;4991943;28;19918;-90
2023/08/09 11:02:00;;;;;;;;;;;20.10;58.20;;;;;;4993080;28;19956;-90
2023/08/09 11:04:26;;;;;;;;;;;20.20;61.80;;;;;;4992248;28;20323;-90
2023/08/09 11:06:52;;;;;;;;;;;20.20;61.50;;;;;;4991620;28;19916;-90
2023/08/09 11:09:18;;;;;;;;;;;20.30;60.30;;;;;;4991832;28;19909;-89
2023/08/09 11:11:45;;;;;;;;;;;20.30;59.40;;;;;;4991920;28;19910;-89
2023/08/09 11:14:11;;;;;;;;;;;20.30;58.20;;;;;;4991678;28;20008;-89
2023/08/09 11:16:36;;;;;;;;;;;20.20;57.50;;;;;;4991528;28;19910;-89
2023/08/09 11:19:07;;;;;;;;;;;20.20;59.10;;;;;;4991521;28;19916;-89
2023/08/09 11:21:42;;;;;;;;;;;20.30;58.50;;;;;;4992067;28;20287;-89
2023/08/09 11:24:08;;;;;;;;;;;20.30;58.80;;;;;;4992181;28;20005;-90
2023/08/09 11:26:36;;;;;;;;;;;20.20;58.00;;;;;;4993168;28;19916;-90
2023/08/09 11:29:02;;;;;;;;;;;20.10;58.60;;;;;;4992925;28;19956;-90
2023/08/09 11:31:29;;;;;;;;;;;20.00;59.10;;;;;;4992591;28;19918;-90
2023/08/09 11:33:59;;;;;;;;;;;20.10;60.70;;;;;;4992654;28;19914;-89
2023/08/09 11:36:31;;;;;;;;;;;20.20;57.60;;;;;;4994716;28;19910;-89
2023/08/09 11:38:57;;;;;;;;;;;20.20;58.40;;;;;;4992218;28;19910;-89
2023/08/09 11:41:24;;;;;;;;;;;20.30;59.00;;;;;;4995139;28;19964;-90
2023/08/09 11:43:50;;;;;;;;;;;20.40;57.90;;;;;;4995108;28;19917;-90
2023/08/09 11:46:18;;;;;;;;;;;20.50;57.00;;;;;;4986663;28;19922;-92
2023/08/09 11:48:44;;;;;;;;;;;20.60;57.90;;;;;;4987554;28;19920;-90
2023/08/09 11:51:13;;;;;;;;;;;20.60;56.10;;;;;;4988787;28;19989;-87
2023/08/09 11:53:40;;;;;;;;;;;20.60;56.00;;;;;;4982142;28;19914;-87
2023/08/09 11:56:26;;;;;;;;;;;20.60;57.20;;;;;;4989675;28;19995;-88
2023/08/09 11:58:52;;;;;;;;;;;20.60;55.00;;;;;;4993807;28;20339;-89
2023/08/09 12:01:20;;;;;;;;;;;20.50;55.50;;;;;;4983942;28;19918;-87
2023/08/09 12:03:46;;;;;;;;;;;20.80;55.70;;;;;;4982353;28;19917;-88
2023/08/09 12:06:12;;;;;;;;;;;20.80;57.60;;;;;;4992854;28;19945;-88
2023/08/09 12:08:38;;;;;;;;;;;20.80;56.70;;;;;;4987627;28;19914;-87
2023/08/09 12:11:04;;;;;;;;;;;20.80;56.30;;;;;;4993426;28;19941;-89
2023/08/09 12:13:29;;;;;;;;;;;20.70;56.90;;;;;;4986488;28;19914;-87
2023/08/09 12:15:56;;;;;;;;;;;20.90;57.80;;;;;;4976054;28;19950;-89
2023/08/09 12:18:22;;;;;;;;;;;21.00;56.80;;;;;;4986824;28;20319;-88
2023/08/09 12:20:47;;;;;;;;;;;21.00;54.80;;;;;;5000770;28;20036;-88
2023/08/09 12:23:13;;;;;;;;;;;21.00;55.60;;;;;;4993930;28;19914;-87
2023/08/09 12:25:38;;;;;;;;;;;21.10;54.60;;;;;;4989649;28;20018;-88
2023/08/09 12:28:04;;;;;;;;;;;20.90;57.80;;;;;;4984698;28;19914;-87
2023/08/09 12:30:29;;;;;;;;;;;21.00;58.10;;;;;;4996237;28;19924;-87
2023/08/09 12:32:55;;;;;;;;;;;21.10;56.30;;;;;;4993044;28;19914;-87
2023/08/09 12:35:21;;;;;;;;;;;21.20;56.40;;;;;;4992056;28;19918;-87
2023/08/09 12:37:46;;;;;;;;;;;21.10;55.70;;;;;;4995276;28;19945;-87
2023/08/09 12:40:13;;;;;;;;;;;21.10;55.80;;;;;;4976825;28;19933;-87
2023/08/09 12:42:38;;;;;;;;;;;21.10;55.10;;;;;;4993949;28;19924;-88
2023/08/09 12:45:05;;;;;;;;;;;21.10;54.70;;;;;;4997691;28;20016;-88
2023/08/09 12:47:30;;;;;;;;;;;21.20;54.80;;;;;;4985579;28;19914;-87
2023/08/09 12:49:56;;;;;;;;;;;21.20;53.90;;;;;;4983865;28;20572;-91
2023/08/09 12:52:25;;;;;;;;;;;21.20;53.80;;;;;;4982218;28;20355;-88
2023/08/09 12:54:51;;;;;;;;;;;21.20;54.20;;;;;;5002212;28;19946;-89
2023/08/09 12:57:17;;;;;;;;;;;21.20;54.10;;;;;;4985570;28;19917;-89
2023/08/09 12:59:43;;;;;;;;;;;21.10;53.40;;;;;;4995136;28;19917;-89
2023/08/09 13:02:08;;;;;;;;;;;21.00;55.80;;;;;;4994072;28;19916;-89
2023/08/09 13:04:34;;;;;;;;;;;20.80;54.40;;;;;;4994260;28;19960;-89
2023/08/09 13:06:59;;;;;;;;;;;20.80;56.10;;;;;;4986373;28;19914;-89
2023/08/09 13:09:27;;;;;;;;;;;20.70;55.60;;;;;;4994503;28;19910;-89
2023/08/09 13:12:05;;;;;;;;;;;20.70;55.40;;;;;;4994690;28;19993;-89
2023/08/09 13:14:30;;;;;;;;;;;20.60;57.20;;;;;;4995177;28;20025;-88
2023/08/09 13:16:56;;;;;;;;;;;20.60;57.90;;;;;;4986932;28;19953;-89
2023/08/09 13:19:21;;;;;;;;;;;20.60;57.10;;;;;;4995155;28;19972;-89
2023/08/09 13:21:47;;;;;;;;;;;20.70;56.40;;;;;;4993634;28;19920;-89
2023/08/09 13:24:12;;;;;;;;;;;20.60;57.20;;;;;;4982742;28;19910;-90
2023/08/09 13:26:38;;;;;;;;;;;20.60;55.20;;;;;;4976371;28;20007;-90
2023/08/09 13:29:04;;;;;;;;;;;20.50;56.90;;;;;;4990152;28;19921;-91
2023/08/09 13:31:29;;;;;;;;;;;20.50;57.00;;;;;;4993779;28;19917;-89
2023/08/09 13:33:57;;;;;;;;;;;20.50;56.00;;;;;;4995544;28;19918;-89
2023/08/09 13:36:22;;;;;;;;;;;20.60;55.60;;;;;;4993381;28;20341;-89
2023/08/09 13:38:50;;;;;;;;;;;20.70;54.60;;;;;;4986095;28;19945;-90
2023/08/09 13:41:19;;;;;;;;;;;20.70;55.20;;;;;;4993663;28;19996;-90
2023/08/09 13:43:44;;;;;;;;;;;20.90;54.70;;;;;;4986211;28;19910;-88
2023/08/09 13:46:13;;;;;;;;;;;20.90;54.10;;;;;;4993503;28;19925;-89
2023/08/09 13:48:38;;;;;;;;;;;21.00;54.20;;;;;;4995232;28;19925;-90
2023/08/09 13:51:06;;;;;;;;;;;20.90;53.40;;;;;;4992944;28;19914;-90
2023/08/09 13:53:32;;;;;;;;;;;20.70;53.80;;;;;;4984495;28;19917;-90
2023/08/09 13:55:57;;;;;;;;;;;20.60;54.40;;;;;;4975505;28;20295;-89
2023/08/09 13:58:23;;;;;;;;;;;20.70;55.40;;;;;;4974741;28;19910;-90
2023/08/09 14:00:49;;;;;;;;;;;20.90;55.60;;;;;;5029126;23;20040;-85
2023/08/09 14:03:14;;;;;;;;;;;21.00;56.00;;;;;;4992598;28;19957;-85
2023/08/09 14:05:40;;;;;;;;;;;21.10;55.00;;;;;;5002815;28;19918;-85
2023/08/09 14:08:05;;;;;;;;;;;21.30;56.10;;;;;;4995778;28;19917;-85
2023/08/09 14:10:31;;;;;;;;;;;21.50;55.00;;;;;;4972211;28;19954;-85
2023/08/09 14:12:57;;;;;;;;;;;21.60;55.20;;;;;;4975107;28;19911;-85
2023/08/09 14:15:22;;;;;;;;;;;21.60;54.10;;;;;;4978724;28;19918;-86
2023/08/09 14:17:48;;;;;;;;;;;21.60;55.10;;;;;;4979755;28;20380;-85
2023/08/09 14:20:16;;;;;;;;;;;21.60;55.80;;;;;;4980016;28;20005;-86
2023/08/09 14:22:43;;;;;;;;;;;21.60;55.10;;;;;;4987244;28;19903;-85
2023/08/09 14:25:08;;;;;;;;;;;21.50;54.60;;;;;;4985274;28;19910;-86
2023/08/09 14:27:34;;;;;;;;;;;21.50;55.20;;;;;;4987537;28;19972;-86
2023/08/09 14:29:59;;;;;;;;;;;21.50;56.10;;;;;;4987612;28;19937;-86
2023/08/09 14:32:25;;;;;;;;;;;21.50;55.20;;;;;;4985360;28;19926;-86
2023/08/09 14:34:50;;;;;;;;;;;21.60;55.70;;;;;;4980588;28;19956;-85
2023/08/09 14:37:16;;;;;;;;;;;21.60;56.80;;;;;;4990176;28;19898;-85
2023/08/09 14:39:42;;;;;;;;;;;21.60;56.10;;;;;;4999580;28;19906;-85
2023/08/09 14:42:07;;;;;;;;;;;21.50;56.00;;;;;;4999626;28;19913;-86
2023/08/09 14:44:36;;;;;;;;;;;21.50;56.00;;;;;;4992721;28;19954;-85
2023/08/09 14:47:01;;;;;;;;;;;21.60;56.60;;;;;;4980566;28;20292;-85
2023/08/09 14:49:29;;;;;;;;;;;21.60;56.30;;;;;;4979061;28;20571;-86
2023/08/09 14:51:56;;;;;;;;;;;21.60;55.20;;;;;;4976432;28;19918;-85
2023/08/09 14:54:21;;;;;;;;;;;21.50;55.40;;;;;;4969300;28;19938;-86
2023/08/09 14:56:47;;;;;;;;;;;21.40;56.20;;;;;;4975673;28;19925;-85
2023/08/09 14:59:14;;;;;;;;;;;21.40;56.30;;;;;;4976452;28;19917;-86
2023/08/09 15:01:40;;;;;;;;;;;21.50;56.90;;;;;;4974405;28;20455;-85
2023/08/09 15:04:13;;;;;;;;;;;21.60;56.40;;;;;;4982147;28;19933;-85
2023/08/09 15:06:39;;;;;;;;;;;21.60;56.40;;;;;;4966850;28;20060;-86
2023/08/09 15:09:05;;;;;;;;;;;21.70;57.60;;;;;;4966284;28;19981;-86
2023/08/09 15:11:30;;;;;;;;;;;21.60;57.90;;;;;;4972046;28;20350;-85
2023/08/09 15:13:58;;;;;;;;;;;21.50;57.40;;;;;;4966216;28;20343;-85
2023/08/09 15:16:23;;;;;;;;;;;21.40;57.90;;;;;;4974319;28;19965;-85
2023/08/09 15:18:49;;;;;;;;;;;21.30;57.80;;;;;;4968487;28;20308;-86
2023/08/09 15:21:14;;;;;;;;;;;21.30;58.50;;;;;;4976665;28;20009;-86
2023/08/09 15:23:40;;;;;;;;;;;21.40;59.00;;;;;;4969086;28;20339;-85
2023/08/09 15:26:05;;;;;;;;;;;21.50;58.70;;;;;;4974017;28;20356;-85
2023/08/09 15:28:32;;;;;;;;;;;21.50;59.40;;;;;;4970063;28;20359;-86